Time;durP1;ratioP1;P1;durP2;ratioP2;P2;SDS_P1;SDS_P2;PMS_P1;PMS_P2;Temp;Humidity;BMP_temperature;BMP_pressure;BME280_temperature;BME280_humidity;BME280_pressure;Samples;Min_cycle;Max_cycle;Signal;HPM_P1;HPM_P2
2022/09/23 00:02:19;;;;;;;10.77;5.88;;;11.10;67.40;;;;;;9172065;19;20434;-66
2022/09/23 00:05:23;;;;;;;8.18;5.32;;;11.10;67.50;;;;;;9175787;19;20011;-66
2022/09/23 00:08:27;;;;;;;13.57;5.93;;;11.10;67.50;;;;;;9174911;19;20035;-66
2022/09/23 00:11:33;;;;;;;10.30;5.50;;;11.10;67.60;;;;;;9176345;19;20025;-68
2022/09/23 00:14:39;;;;;;;9.98;6.03;;;11.10;67.70;;;;;;9176190;19;20722;-67
2022/09/23 00:17:42;;;;;;;7.22;5.85;;;11.10;67.70;;;;;;9175914;19;20015;-66
2022/09/23 00:20:46;;;;;;;12.85;5.75;;;11.00;67.70;;;;;;9176923;19;20509;-67
2022/09/23 00:23:50;;;;;;;10.52;5.68;;;11.00;67.70;;;;;;9182690;19;20082;-65
2022/09/23 00:26:56;;;;;;;11.00;5.50;;;11.00;67.70;;;;;;9184369;19;20018;-66
2022/09/23 00:29:59;;;;;;;9.38;5.40;;;11.00;67.80;;;;;;9183436;19;20010;-64
2022/09/23 00:33:03;;;;;;;9.60;5.90;;;11.00;67.80;;;;;;9182226;19;20049;-68
2022/09/23 00:36:09;;;;;;;7.97;5.28;;;11.00;67.90;;;;;;9182279;19;20015;-68
2022/09/23 00:39:13;;;;;;;8.27;5.80;;;11.00;67.90;;;;;;9182675;19;20412;-67
2022/09/23 00:42:21;;;;;;;10.23;6.00;;;11.00;68.00;;;;;;9183187;19;20093;-67
2022/09/23 00:45:25;;;;;;;10.40;5.20;;;10.90;68.00;;;;;;9182307;19;20386;-67
2022/09/23 00:48:28;;;;;;;;;;;10.90;68.00;;;;;;9185054;19;20019;-66
2022/09/23 00:51:37;;;;;;;8.30;5.45;;;10.90;68.00;;;;;;9183377;19;19926;-65
2022/09/23 00:54:42;;;;;;;7.82;5.30;;;10.90;67.90;;;;;;9183101;19;20010;-68
2022/09/23 00:57:48;;;;;;;10.07;5.30;;;10.80;68.00;;;;;;9182085;19;20022;-66
2022/09/23 01:00:52;;;;;;;9.63;6.03;;;10.80;68.10;;;;;;9178640;19;20028;-66
2022/09/23 01:03:57;;;;;;;10.02;5.57;;;10.80;68.10;;;;;;9182706;19;20053;-67
2022/09/23 01:07:01;;;;;;;8.27;5.80;;;10.80;68.20;;;;;;9182319;19;20105;-66
2022/09/23 01:10:06;;;;;;;14.68;6.00;;;10.80;68.30;;;;;;9179261;19;20022;-67
2022/09/23 01:13:20;;;;;;;11.88;6.13;;;10.70;68.30;;;;;;9183133;19;20102;-65
2022/09/23 01:16:27;;;;;;;;;;;10.80;68.40;;;;;;9181115;19;20617;-66
2022/09/23 01:20:01;;;;;;;7.75;5.35;;;10.70;68.30;;;;;;9178879;19;19918;-66
2022/09/23 01:23:23;;;;;;;9.10;5.78;;;10.70;68.30;;;;;;9182212;19;20031;-67
2022/09/23 01:26:55;;;;;;;9.80;6.10;;;10.70;68.40;;;;;;9181844;19;20479;-66
2022/09/23 01:30:15;;;;;;;8.85;5.97;;;10.60;68.50;;;;;;9182052;19;20014;-67
2022/09/23 01:33:31;;;;;;;10.48;6.07;;;10.60;68.50;;;;;;9180507;19;20039;-66
2022/09/23 01:36:41;;;;;;;9.32;6.20;;;10.60;68.50;;;;;;9182415;19;20074;-67
2022/09/23 01:39:52;;;;;;;8.90;5.95;;;10.60;68.50;;;;;;9179564;19;20082;-66
2022/09/23 01:43:01;;;;;;;8.48;5.72;;;10.60;68.60;;;;;;9181338;19;20082;-67
2022/09/23 01:46:10;;;;;;;14.73;6.50;;;10.60;68.60;;;;;;9179638;19;20347;-67
2022/09/23 01:49:20;;;;;;;7.22;5.18;;;10.60;68.70;;;;;;9182189;19;20558;-67
2022/09/23 01:52:29;;;;;;;7.65;5.53;;;10.50;68.70;;;;;;9180941;19;20024;-66
2022/09/23 01:55:37;;;;;;;9.73;6.43;;;10.50;68.80;;;;;;9181632;19;20026;-67
2022/09/23 01:58:46;;;;;;;8.20;6.00;;;10.50;68.90;;;;;;9180326;19;20040;-68
2022/09/23 02:01:56;;;;;;;14.65;5.93;;;10.50;68.90;;;;;;9177655;19;20018;-67
2022/09/23 02:05:08;;;;;;;8.68;5.68;;;10.40;68.90;;;;;;9181130;19;20023;-67
2022/09/23 02:08:18;;;;;;;10.70;5.78;;;10.50;69.00;;;;;;9179848;19;20018;-66
2022/09/23 02:11:22;;;;;;;11.55;5.95;;;10.50;69.00;;;;;;9180649;19;20073;-67
2022/09/23 02:14:31;;;;;;;8.60;5.97;;;10.40;69.00;;;;;;9179956;19;20011;-67
2022/09/23 02:17:42;;;;;;;10.02;6.82;;;10.40;69.00;;;;;;9180213;19;20034;-67
2022/09/23 02:20:50;;;;;;;9.75;5.90;;;10.40;69.10;;;;;;9181564;19;20025;-66
2022/09/23 02:23:59;;;;;;;8.55;6.05;;;10.40;69.10;;;;;;9179936;19;20110;-65
2022/09/23 02:27:13;;;;;;;9.38;6.05;;;10.40;69.10;;;;;;9180638;19;20007;-66
2022/09/23 02:30:19;;;;;;;8.18;5.63;;;10.40;69.20;;;;;;9180408;19;20014;-66
2022/09/23 02:33:29;;;;;;;10.15;6.28;;;10.40;69.20;;;;;;9180657;19;20094;-67
2022/09/23 02:36:44;;;;;;;10.48;6.32;;;10.30;69.20;;;;;;9178768;19;20026;-67
2022/09/23 02:39:57;;;;;;;18.25;6.40;;;10.40;69.40;;;;;;9177662;19;20022;-68
2022/09/23 02:43:08;;;;;;;9.43;5.78;;;10.30;69.30;;;;;;9180087;19;20024;-66
2022/09/23 02:46:11;;;;;;;7.93;5.57;;;10.30;69.40;;;;;;9176645;19;20539;-66
2022/09/23 02:49:20;;;;;;;9.73;6.05;;;10.30;69.30;;;;;;9180472;19;20018;-67
2022/09/23 02:52:26;;;;;;;7.97;6.10;;;10.30;69.40;;;;;;9180345;19;20081;-68
2022/09/23 02:55:31;;;;;;;13.18;6.50;;;10.30;69.40;;;;;;9179268;19;20492;-66
2022/09/23 02:58:35;;;;;;;8.82;5.95;;;10.20;69.40;;;;;;9178604;19;20024;-66
2022/09/23 03:01:47;;;;;;;9.52;5.53;;;10.30;69.50;;;;;;9175569;19;20900;-67
2022/09/23 03:04:58;;;;;;;7.70;5.82;;;10.20;69.50;;;;;;9179751;19;20779;-66
2022/09/23 03:08:18;;;;;;;8.60;6.05;;;10.20;69.60;;;;;;9177922;19;20547;-67
2022/09/23 03:11:23;;;;;;;11.20;5.65;;;10.20;69.60;;;;;;9177593;19;20026;-66
2022/09/23 03:14:34;;;;;;;7.03;5.25;;;10.10;69.50;;;;;;9178877;19;20011;-68
2022/09/23 03:17:45;;;;;;;9.05;5.88;;;10.10;69.70;;;;;;9176790;19;20078;-66
2022/09/23 03:20:53;;;;;;;7.63;5.53;;;10.10;69.60;;;;;;9178163;19;20014;-67
2022/09/23 03:24:01;;;;;;;8.32;5.72;;;10.10;69.60;;;;;;9178445;19;20429;-64
2022/09/23 03:27:12;;;;;;;9.98;6.10;;;10.10;69.70;;;;;;9178063;19;20014;-67
2022/09/23 03:30:16;;;;;;;8.43;5.30;;;10.10;69.70;;;;;;9177523;19;20022;-67
2022/09/23 03:33:26;;;;;;;13.20;5.63;;;10.00;69.70;;;;;;9176909;19;20053;-68
2022/09/23 03:36:52;;;;;;;12.02;5.75;;;10.00;69.70;;;;;;9175553;19;20022;-66
2022/09/23 03:40:05;;;;;;;11.88;5.47;;;9.90;69.70;;;;;;9174863;19;20048;-67
2022/09/23 03:43:10;;;;;;;10.30;5.25;;;9.90;69.70;;;;;;9177251;19;20010;-65
2022/09/23 03:46:17;;;;;;;6.90;5.20;;;9.90;69.70;;;;;;9176563;19;20030;-67
2022/09/23 03:49:26;;;;;;;8.07;5.85;;;9.90;69.70;;;;;;9178252;19;20041;-67
2022/09/23 03:52:30;;;;;;;7.88;5.30;;;9.90;69.80;;;;;;9177260;19;20074;-67
2022/09/23 03:55:38;;;;;;;8.60;6.60;;;9.90;69.90;;;;;;9177148;19;20025;-67
2022/09/23 03:58:42;;;;;;;8.27;4.95;;;9.80;69.80;;;;;;9184359;19;20020;-66
2022/09/23 04:01:46;;;;;;;11.20;5.88;;;9.80;69.80;;;;;;9180097;19;20070;-67
2022/09/23 04:04:50;;;;;;;;;;;9.80;69.90;;;;;;9185862;19;20021;-65
2022/09/23 04:07:53;;;;;;;6.60;5.00;;;9.80;69.80;;;;;;9181534;19;19930;-67
2022/09/23 04:11:03;;;;;;;8.07;5.55;;;9.80;69.80;;;;;;9186536;19;20078;-66
2022/09/23 04:14:07;;;;;;;7.88;5.35;;;9.70;69.80;;;;;;9183209;19;20389;-66
2022/09/23 04:17:11;;;;;;;7.63;5.28;;;9.70;69.90;;;;;;9185277;19;20066;-65
2022/09/23 04:20:17;;;;;;;7.25;5.13;;;9.70;70.00;;;;;;9183304;19;20041;-64
2022/09/23 04:23:21;;;;;;;8.55;5.90;;;9.70;70.00;;;;;;9184451;19;20074;-65
2022/09/23 04:26:27;;;;;;;8.00;5.25;;;9.70;70.00;;;;;;9183605;19;20085;-65
2022/09/23 04:29:30;;;;;;;8.32;5.55;;;9.60;70.10;;;;;;9182443;19;20011;-65
2022/09/23 04:32:34;;;;;;;11.48;5.68;;;9.70;70.00;;;;;;9184724;19;20113;-65
2022/09/23 04:35:38;;;;;;;11.40;5.82;;;9.60;70.10;;;;;;9183864;19;20559;-66
2022/09/23 04:38:45;;;;;;;8.10;5.25;;;9.60;70.10;;;;;;9183260;19;20085;-69
2022/09/23 04:41:50;;;;;;;7.93;5.22;;;9.60;70.10;;;;;;9181677;19;20022;-66
2022/09/23 04:44:54;;;;;;;8.05;5.35;;;9.60;70.20;;;;;;9183719;19;20066;-66
2022/09/23 04:47:58;;;;;;;10.40;6.22;;;9.60;70.20;;;;;;9182484;19;20090;-66
2022/09/23 04:51:05;;;;;;;;;;;9.50;70.20;;;;;;9181484;19;20018;-66
2022/09/23 04:54:09;;;;;;;11.13;4.63;;;9.50;70.10;;;;;;9182560;19;19940;-67
2022/09/23 04:57:15;;;;;;;9.45;5.90;;;9.50;70.00;;;;;;9183368;19;20028;-65
2022/09/23 05:00:18;;;;;;;12.20;5.28;;;9.50;70.10;;;;;;9177177;19;20556;-67
2022/09/23 05:03:22;;;;;;;13.23;5.63;;;9.50;70.20;;;;;;9180199;19;20086;-67
2022/09/23 05:06:26;;;;;;;10.07;5.47;;;9.50;70.20;;;;;;9180996;19;20048;-66
2022/09/23 05:09:30;;;;;;;;;;;9.40;70.20;;;;;;9178957;19;20025;-65
2022/09/23 05:12:35;;;;;;;9.82;5.78;;;9.40;70.20;;;;;;9180426;19;19960;-66
2022/09/23 05:15:39;;;;;;;8.02;4.90;;;9.40;70.10;;;;;;9176686;19;20018;-67
2022/09/23 05:18:44;;;;;;;8.88;5.65;;;9.40;70.20;;;;;;9178558;19;20078;-67
2022/09/23 05:21:47;;;;;;;6.15;4.78;;;9.40;70.30;;;;;;9181636;19;20094;-65
2022/09/23 05:24:51;;;;;;;9.48;5.63;;;9.40;70.30;;;;;;9175659;19;20022;-66
2022/09/23 05:27:56;;;;;;;12.45;5.93;;;9.40;70.40;;;;;;9176741;19;20031;-66
2022/09/23 05:31:04;;;;;;;8.98;5.75;;;9.30;70.40;;;;;;9182655;19;20018;-66
2022/09/23 05:34:08;;;;;;;8.23;5.75;;;9.30;70.40;;;;;;9182523;19;20015;-67
2022/09/23 05:37:11;;;;;;;16.83;5.90;;;9.30;70.40;;;;;;9183507;19;20472;-66
2022/09/23 05:40:15;;;;;;;8.88;5.68;;;9.30;70.50;;;;;;9178586;19;20018;-66
2022/09/23 05:43:21;;;;;;;13.68;6.03;;;9.30;70.50;;;;;;9183306;19;20014;-67
2022/09/23 05:46:26;;;;;;;12.20;5.50;;;9.30;70.60;;;;;;9182261;19;20014;-67
2022/09/23 05:49:30;;;;;;;9.40;5.60;;;9.30;70.60;;;;;;9181780;19;20019;-66
2022/09/23 05:52:53;;;;;;;12.80;5.40;;;9.30;70.60;;;;;;9180840;19;20074;-66
2022/09/23 05:55:58;;;;;;;7.60;5.38;;;9.30;71.20;;;;;;9181237;19;20047;-66
2022/09/23 05:59:04;;;;;;;13.13;5.95;;;9.30;70.60;;;;;;9177904;19;20022;-66
2022/09/23 06:02:09;;;;;;;7.13;5.22;;;9.30;70.70;;;;;;9171563;19;20018;-66
2022/09/23 06:05:13;;;;;;;11.23;4.82;;;9.30;70.80;;;;;;9181256;19;20082;-66
2022/09/23 06:08:17;;;;;;;8.45;5.70;;;9.30;70.80;;;;;;9179065;19;20034;-66
2022/09/23 06:11:21;;;;;;;10.27;5.45;;;9.30;70.90;;;;;;9181769;19;20033;-66
2022/09/23 06:14:27;;;;;;;11.48;5.55;;;9.30;70.90;;;;;;9181153;19;20021;-66
2022/09/23 06:17:31;;;;;;;8.30;6.10;;;9.30;71.00;;;;;;9180930;19;20037;-67
2022/09/23 06:20:35;;;;;;;10.32;6.40;;;9.40;71.00;;;;;;9176634;19;20014;-67
2022/09/23 06:23:39;;;;;;;8.48;5.57;;;9.40;71.10;;;;;;9180008;19;20014;-68
2022/09/23 06:26:45;;;;;;;9.35;6.32;;;9.40;71.20;;;;;;9178725;19;20015;-67
2022/09/23 06:29:51;;;;;;;16.60;8.88;;;9.50;71.90;;;;;;9180342;19;20019;-68
2022/09/23 06:32:56;;;;;;;22.90;8.60;;;9.50;71.30;;;;;;9180640;19;20037;-67
2022/09/23 06:36:01;;;;;;;15.40;8.32;;;9.60;71.40;;;;;;9179792;19;20027;-67
2022/09/23 06:39:05;;;;;;;15.52;6.45;;;9.60;71.50;;;;;;9176858;19;20030;-67
2022/09/23 06:42:09;;;;;;;;;;;9.70;71.60;;;;;;9182081;19;20015;-65
2022/09/23 06:45:15;;;;;;;14.65;7.18;;;9.80;71.60;;;;;;9179780;19;20393;-66
2022/09/23 06:48:19;;;;;;;10.43;5.82;;;9.80;71.30;;;;;;9179023;19;20482;-66
2022/09/23 06:51:23;;;;;;;12.52;6.55;;;9.90;71.50;;;;;;9179770;19;20014;-66
2022/09/23 06:54:27;;;;;;;16.42;6.28;;;10.00;71.60;;;;;;9178757;19;20018;-65
2022/09/23 06:57:31;;;;;;;13.85;7.05;;;10.10;71.70;;;;;;9176468;19;20043;-65
2022/09/23 07:00:37;;;;;;;13.35;5.97;;;10.20;71.70;;;;;;9172149;19;20441;-66
2022/09/23 07:03:41;;;;;;;16.17;6.75;;;10.20;71.90;;;;;;9178002;19;20019;-68
2022/09/23 07:06:45;;;;;;;10.00;6.38;;;10.30;71.80;;;;;;9171135;19;20171;-68
2022/09/23 07:09:49;;;;;;;14.82;7.57;;;10.40;71.90;;;;;;9170587;19;20034;-66
2022/09/23 07:12:52;;;;;;;15.13;6.72;;;10.40;71.90;;;;;;9174171;19;20011;-64
2022/09/23 07:16:00;;;;;;;11.20;5.78;;;10.50;71.90;;;;;;9173500;19;20040;-63
2022/09/23 07:19:04;;;;;;;13.40;6.40;;;10.60;72.00;;;;;;9172321;19;20101;-67
2022/09/23 07:22:08;;;;;;;;;;;10.60;72.00;;;;;;9179945;19;20475;-68
2022/09/23 07:25:12;;;;;;;16.95;7.10;;;10.70;72.00;;;;;;9176100;19;19919;-64
2022/09/23 07:28:15;;;;;;;10.93;6.13;;;10.80;71.70;;;;;;9179555;19;20027;-66
2022/09/23 07:31:21;;;;;;;12.73;6.85;;;10.90;71.90;;;;;;9178133;19;20400;-65
2022/09/23 07:34:40;;;;;;;14.50;6.28;;;11.00;72.00;;;;;;9179073;19;20014;-67
2022/09/23 07:37:43;;;;;;;15.02;6.60;;;11.10;72.10;;;;;;9179089;19;20017;-68
2022/09/23 07:40:47;;;;;;;15.50;6.30;;;11.10;72.10;;;;;;9175484;19;20019;-65
2022/09/23 07:43:54;;;;;;;16.00;6.20;;;11.20;72.10;;;;;;9179419;19;20484;-67
2022/09/23 07:47:00;;;;;;;13.27;6.07;;;11.30;72.20;;;;;;9178036;19;20508;-67
2022/09/23 07:50:04;;;;;;;18.20;6.50;;;11.40;72.20;;;;;;9176484;19;20014;-66
2022/09/23 07:53:07;;;;;;;;;;;11.40;72.20;;;;;;9175940;19;20040;-66
2022/09/23 07:56:11;;;;;;;15.05;6.88;;;11.50;72.10;;;;;;9169379;19;20341;-66
2022/09/23 07:59:17;;;;;;;;;;;11.60;72.00;;;;;;9170697;19;20037;-65
2022/09/23 08:02:22;;;;;;;14.93;6.13;;;11.70;72.00;;;;;;9167209;19;19930;-67
2022/09/23 08:05:27;;;;;;;15.48;6.00;;;11.80;71.90;;;;;;9170638;19;20026;-67
2022/09/23 08:08:31;;;;;;;12.50;6.00;;;11.80;72.00;;;;;;9168839;19;20082;-67
2022/09/23 08:11:35;;;;;;;10.57;5.88;;;11.90;72.00;;;;;;9170713;19;20358;-68
2022/09/23 08:14:39;;;;;;;15.75;5.68;;;12.00;72.10;;;;;;9170232;19;20372;-66
2022/09/23 08:17:45;;;;;;;;;;;12.10;72.10;;;;;;9171734;19;20086;-66
2022/09/23 08:20:48;;;;;;;11.65;5.22;;;12.20;72.00;;;;;;9167399;19;20328;-67
2022/09/23 08:23:52;;;;;;;10.65;5.40;;;12.30;71.90;;;;;;9170588;19;20018;-65
2022/09/23 08:26:56;;;;;;;10.00;5.20;;;12.40;72.20;;;;;;9170779;19;20018;-67
2022/09/23 08:30:00;;;;;;;10.35;5.25;;;12.50;71.90;;;;;;9172438;19;20511;-64
2022/09/23 08:33:05;;;;;;;14.25;5.30;;;12.60;71.90;;;;;;9175460;19;20018;-67
2022/09/23 08:36:09;;;;;;;11.13;5.32;;;12.60;71.90;;;;;;9176070;19;20351;-65
2022/09/23 08:39:15;;;;;;;10.25;5.30;;;12.70;71.90;;;;;;9174642;19;20058;-66
2022/09/23 08:42:27;;;;;;;8.82;4.63;;;12.90;72.10;;;;;;9174806;19;20811;-66
2022/09/23 08:45:31;;;;;;;9.48;5.70;;;13.00;72.10;;;;;;9183989;19;20082;-66
2022/09/23 08:48:38;;;;;;;;;;;13.10;72.00;;;;;;9184206;19;20019;-64
2022/09/23 08:51:46;;;;;;;11.68;5.40;;;13.20;72.00;;;;;;9185144;19;19925;-67
2022/09/23 08:54:50;;;;;;;10.13;4.82;;;13.40;71.80;;;;;;9183950;19;20019;-66
2022/09/23 08:58:14;;;;;;;14.30;5.18;;;13.50;71.80;;;;;;9183736;19;20047;-66
2022/09/23 09:01:35;;;;;;;8.75;5.25;;;13.70;71.90;;;;;;9175033;19;20025;-66
2022/09/23 09:04:45;;;;;;;12.40;5.53;;;13.80;71.70;;;;;;9183983;19;20135;-66
2022/09/23 09:07:49;;;;;;;11.68;4.95;;;14.00;71.70;;;;;;9180699;19;20037;-65
2022/09/23 09:10:57;;;;;;;17.17;5.10;;;14.20;71.60;;;;;;9179191;19;20073;-65
2022/09/23 09:14:06;;;;;;;13.32;5.60;;;14.30;71.40;;;;;;9182880;19;20015;-65
2022/09/23 09:17:18;;;;;;;11.48;5.18;;;14.40;71.30;;;;;;9180768;19;20082;-66
2022/09/23 09:20:31;;;;;;;10.77;4.90;;;14.50;71.20;;;;;;9179865;19;20027;-70
2022/09/23 09:23:39;;;;;;;10.82;5.00;;;14.60;71.10;;;;;;9181672;19;20022;-67
2022/09/23 09:26:43;;;;;;;12.85;4.75;;;14.70;71.00;;;;;;9182089;19;20018;-67
2022/09/23 09:29:52;;;;;;;11.48;5.60;;;14.80;70.90;;;;;;9182138;19;20491;-67
2022/09/23 09:33:01;;;;;;;9.82;5.70;;;14.90;70.80;;;;;;9181167;19;20023;-69
2022/09/23 09:36:22;;;;;;;9.63;4.80;;;15.00;70.80;;;;;;9181402;19;20014;-69
2022/09/23 09:39:27;;;;;;;8.63;4.47;;;15.10;70.70;;;;;;9182496;19;20022;-68
2022/09/23 09:42:40;;;;;;;10.57;5.22;;;15.30;70.80;;;;;;9174533;19;20035;-68
2022/09/23 09:45:58;;;;;;;9.77;4.93;;;15.30;70.70;;;;;;9175106;19;20022;-68
2022/09/23 09:49:04;;;;;;;9.75;5.22;;;15.50;70.70;;;;;;9178769;19;20018;-70
2022/09/23 09:52:24;;;;;;;11.77;4.47;;;15.50;70.50;;;;;;9178250;19;20035;-69
2022/09/23 09:55:29;;;;;;;10.05;4.32;;;15.70;70.60;;;;;;9178050;19;20089;-71
2022/09/23 09:58:43;;;;;;;15.35;4.60;;;15.80;70.40;;;;;;9182400;19;20400;-67
2022/09/23 10:01:47;;;;;;;9.85;4.90;;;16.00;70.40;;;;;;9177369;19;20028;-68
2022/09/23 10:05:03;;;;;;;8.82;5.18;;;16.10;70.20;;;;;;9180887;19;20018;-69
2022/09/23 10:08:25;;;;;;;9.15;4.47;;;16.30;70.20;;;;;;9180336;19;20018;-69
2022/09/23 10:11:30;;;;;;;6.43;4.35;;;16.50;70.00;;;;;;9181558;19;20450;-67
2022/09/23 10:14:35;;;;;;;12.30;5.45;;;16.60;69.90;;;;;;9181316;19;20014;-68
2022/09/23 10:17:40;;;;;;;8.20;4.13;;;16.70;69.60;;;;;;9181235;19;20082;-68
2022/09/23 10:20:45;;;;;;;11.77;5.25;;;16.90;69.50;;;;;;9179098;19;20364;-69
2022/09/23 10:23:53;;;;;;;8.60;4.63;;;17.00;69.40;;;;;;9181213;19;20086;-69
2022/09/23 10:27:01;;;;;;;7.57;4.78;;;17.10;69.20;;;;;;9181034;19;20018;-67
2022/09/23 10:30:07;;;;;;;8.43;4.40;;;17.20;69.10;;;;;;9180446;19;20030;-69
2022/09/23 10:33:28;;;;;;;12.73;5.15;;;17.30;69.00;;;;;;9182508;19;20050;-68
2022/09/23 10:36:33;;;;;;;17.15;4.45;;;17.50;68.80;;;;;;9181602;19;20026;-69
2022/09/23 10:46:40;;;;;;;8.60;4.47;;;17.70;68.40;;;;;;9180848;19;20098;-67
2022/09/23 10:50:25;;;;;;;18.00;5.47;;;17.80;68.30;;;;;;9178043;19;20540;-69
2022/09/23 10:53:40;;;;;;;8.18;3.92;;;18.00;68.10;;;;;;9179934;19;20471;-69
2022/09/23 10:56:49;;;;;;;8.80;4.65;;;18.10;68.10;;;;;;9180100;19;20483;-69
2022/09/23 11:00:02;;;;;;;11.57;4.82;;;18.10;67.90;;;;;;9179626;19;20006;-68
2022/09/23 11:03:47;;;;;;;11.20;4.15;;;18.20;68.40;;;;;;9180773;19;20035;-68
2022/09/23 11:07:06;;;;;;;10.77;5.03;;;18.20;67.60;;;;;;9175460;19;20062;-68
2022/09/23 11:10:50;;;;;;;14.30;4.65;;;18.30;67.60;;;;;;9175863;19;20014;-70
2022/09/23 11:14:15;;;;;;;12.43;5.25;;;18.40;67.50;;;;;;9178684;19;20019;-68
2022/09/23 11:17:48;;;;;;;11.98;4.43;;;18.50;67.30;;;;;;9177630;19;20035;-67
2022/09/23 11:21:07;;;;;;;11.48;4.07;;;18.60;67.20;;;;;;9175747;19;20010;-68
2022/09/23 11:24:26;;;;;;;9.05;3.88;;;18.60;67.10;;;;;;9175856;19;20018;-68
2022/09/23 11:27:46;;;;;;;9.45;4.05;;;18.60;66.90;;;;;;9178507;19;20047;-68
2022/09/23 11:31:08;;;;;;;10.10;4.28;;;18.70;66.80;;;;;;9179153;19;20430;-69
2022/09/23 11:34:29;;;;;;;6.10;3.70;;;18.80;66.70;;;;;;9179191;19;20018;-68
2022/09/23 11:37:37;;;;;;;7.35;3.95;;;18.80;66.70;;;;;;9177957;19;20646;-70
2022/09/23 11:40:43;;;;;;;7.72;3.70;;;18.90;66.70;;;;;;9176461;19;20082;-67
2022/09/23 11:43:53;;;;;;;13.23;4.40;;;18.90;66.60;;;;;;9179325;19;20357;-68
2022/09/23 11:47:04;;;;;;;8.88;4.55;;;19.00;66.50;;;;;;9179209;19;20014;-68
2022/09/23 11:50:18;;;;;;;8.45;4.03;;;19.00;66.20;;;;;;9178044;19;20014;-67
2022/09/23 11:53:27;;;;;;;8.35;4.40;;;19.10;66.10;;;;;;9177192;19;20086;-67
2022/09/23 11:56:37;;;;;;;9.35;4.75;;;19.20;66.10;;;;;;9179151;19;20090;-69
2022/09/23 11:59:47;;;;;;;;;;;19.20;65.90;;;;;;9178319;19;20019;-68
2022/09/23 12:03:02;;;;;;;8.80;4.18;;;19.30;66.10;;;;;;9173473;19;19946;-68
2022/09/23 12:06:15;;;;;;;6.65;3.90;;;19.30;65.90;;;;;;9178279;19;20037;-68
2022/09/23 12:09:25;;;;;;;11.88;3.92;;;19.30;65.80;;;;;;9176104;19;20018;-66
2022/09/23 12:12:56;;;;;;;6.72;3.58;;;19.30;65.70;;;;;;9178364;19;20025;-66
2022/09/23 12:16:23;;;;;;;10.40;4.63;;;19.40;65.60;;;;;;9178285;19;20018;-67
2022/09/23 12:19:50;;;;;;;5.53;3.40;;;19.40;65.40;;;;;;9186368;19;20019;-68
2022/09/23 12:23:03;;;;;;;8.52;3.83;;;19.40;65.30;;;;;;9185916;19;20006;-69
2022/09/23 12:26:13;;;;;;;8.85;3.50;;;19.40;65.30;;;;;;9185444;19;20010;-68
2022/09/23 12:29:17;;;;;;;7.63;3.53;;;19.40;65.20;;;;;;9185758;19;20094;-68
2022/09/23 12:32:20;;;;;;;;;;;19.40;65.20;;;;;;9186393;19;20021;-69
2022/09/23 12:35:34;;;;;;;6.53;4.05;;;19.40;65.30;;;;;;9183298;19;20315;-68
2022/09/23 12:38:41;;;;;;;7.10;3.63;;;19.40;65.20;;;;;;9185898;19;20049;-66
2022/09/23 12:41:50;;;;;;;6.97;3.47;;;19.40;65.20;;;;;;9181269;19;20380;-69
2022/09/23 12:45:33;;;;;;;7.57;3.72;;;19.30;65.10;;;;;;9185098;19;20106;-68
2022/09/23 12:49:01;;;;;;;8.77;3.65;;;19.30;64.90;;;;;;9185382;19;20045;-68
2022/09/23 12:52:23;;;;;;;7.22;3.92;;;19.30;64.90;;;;;;9184842;19;20353;-68
2022/09/23 12:55:50;;;;;;;7.78;3.83;;;19.30;64.90;;;;;;9185419;19;20019;-68
2022/09/23 12:59:01;;;;;;;11.98;4.07;;;19.30;64.80;;;;;;9184638;19;20501;-68
2022/09/23 13:02:37;;;;;;;8.80;3.42;;;19.30;64.90;;;;;;9179797;19;20047;-68
2022/09/23 13:09:03;;;;;;;9.10;3.90;;;19.30;64.90;;;;;;9182869;19;20043;-67
2022/09/23 13:12:10;;;;;;;8.30;4.07;;;19.20;64.90;;;;;;9184410;19;20519;-68
2022/09/23 13:15:20;;;;;;;9.93;3.42;;;19.30;64.90;;;;;;9184263;19;20011;-67
2022/09/23 13:18:53;;;;;;;8.73;4.25;;;19.30;64.80;;;;;;9183872;19;20051;-69
2022/09/23 13:22:06;;;;;;;7.28;4.40;;;19.20;64.40;;;;;;9178919;19;20096;-70
2022/09/23 13:25:20;;;;;;;12.75;4.78;;;19.30;64.60;;;;;;9183939;19;20482;-67
2022/09/23 13:28:35;;;;;;;8.00;4.18;;;19.30;64.50;;;;;;9179020;19;20015;-69
2022/09/23 13:31:39;;;;;;;7.43;4.13;;;19.20;64.40;;;;;;9180916;19;20026;-68
2022/09/23 13:34:48;;;;;;;6.97;4.50;;;19.30;64.60;;;;;;9183501;19;20018;-67
2022/09/23 13:37:51;;;;;;;8.65;4.30;;;19.30;64.50;;;;;;9182965;19;20078;-69
2022/09/23 13:40:57;;;;;;;10.23;4.00;;;19.30;64.50;;;;;;9181084;19;21574;-69
2022/09/23 13:44:01;;;;;;;5.47;4.18;;;19.30;64.40;;;;;;9183810;19;20050;-68
2022/09/23 13:47:05;;;;;;;;;;;19.30;64.30;;;;;;9185094;19;20371;-69
2022/09/23 13:50:17;;;;;;;10.85;4.25;;;19.30;64.40;;;;;;9181123;19;19982;-68
2022/09/23 13:53:25;;;;;;;9.68;4.55;;;19.40;64.30;;;;;;9183357;19;20019;-69
2022/09/23 13:56:31;;;;;;;10.52;4.75;;;19.40;64.20;;;;;;9182791;19;20018;-68
2022/09/23 13:59:39;;;;;;;12.75;3.90;;;19.40;64.10;;;;;;9182926;19;20086;-68
2022/09/23 14:02:44;;;;;;;9.55;3.95;;;19.40;64.00;;;;;;9178842;19;20057;-69
2022/09/23 14:05:50;;;;;;;12.13;4.20;;;19.40;63.90;;;;;;9183483;19;20392;-68
2022/09/23 14:08:55;;;;;;;4.18;2.95;;;19.50;63.90;;;;;;9179268;19;20030;-68
2022/09/23 14:12:00;;;;;;;7.53;3.78;;;19.40;63.80;;;;;;9182686;19;20077;-68
2022/09/23 14:15:06;;;;;;;6.28;3.70;;;19.40;63.70;;;;;;9182478;19;20029;-69
2022/09/23 14:18:09;;;;;;;13.32;4.20;;;19.40;63.70;;;;;;9182599;19;20077;-68
2022/09/23 14:21:34;;;;;;;8.90;3.60;;;19.40;63.60;;;;;;9179019;19;20015;-68
2022/09/23 14:24:38;;;;;;;9.70;3.60;;;19.40;63.40;;;;;;9182614;19;20516;-68
2022/09/23 14:27:43;;;;;;;8.02;3.90;;;19.40;63.50;;;;;;9179239;19;20031;-68
2022/09/23 14:30:48;;;;;;;12.10;3.97;;;19.40;63.50;;;;;;9181682;19;20069;-68
2022/09/23 14:33:52;;;;;;;6.63;3.60;;;19.40;63.40;;;;;;9175019;19;20027;-67
2022/09/23 14:40:29;;;;;;;7.85;4.10;;;19.40;63.30;;;;;;9176696;19;20081;-66
2022/09/23 14:43:33;;;;;;;9.98;4.50;;;19.40;63.80;;;;;;9180619;19;20019;-69
2022/09/23 14:46:39;;;;;;;9.50;3.97;;;19.40;63.20;;;;;;9180066;19;20852;-69
2022/09/23 14:50:35;;;;;;;6.72;3.70;;;19.40;63.10;;;;;;9179373;19;20818;-68
2022/09/23 14:53:39;;;;;;;8.23;3.20;;;19.50;63.10;;;;;;9180506;19;20021;-69
2022/09/23 14:56:43;;;;;;;7.03;3.17;;;19.40;62.90;;;;;;9179461;19;20035;-67
2022/09/23 14:59:52;;;;;;;5.97;3.03;;;19.40;63.10;;;;;;9180047;19;20091;-67
2022/09/23 15:03:00;;;;;;;6.30;3.45;;;19.50;63.00;;;;;;9176665;19;20356;-68
2022/09/23 15:06:08;;;;;;;6.18;3.33;;;19.40;62.90;;;;;;9179461;19;20031;-69
2022/09/23 15:09:20;;;;;;;7.63;3.85;;;19.40;63.00;;;;;;9176922;19;20018;-68
2022/09/23 15:12:23;;;;;;;6.70;3.67;;;19.40;62.80;;;;;;9179571;19;20019;-67
2022/09/23 15:15:29;;;;;;;9.07;3.90;;;19.40;62.90;;;;;;9180488;19;20014;-68
2022/09/23 15:18:35;;;;;;;10.35;3.58;;;19.40;62.80;;;;;;9177806;19;20027;-67
2022/09/23 15:21:41;;;;;;;8.85;3.70;;;19.40;62.80;;;;;;9176405;19;20014;-68
2022/09/23 15:24:47;;;;;;;8.82;3.80;;;19.40;62.80;;;;;;9178822;19;20420;-68
2022/09/23 15:28:03;;;;;;;7.95;2.95;;;19.40;62.80;;;;;;9178994;19;20480;-68
2022/09/23 15:31:07;;;;;;;7.60;2.75;;;19.30;62.60;;;;;;9179026;19;20405;-68
2022/09/23 15:34:12;;;;;;;8.48;3.38;;;19.30;62.70;;;;;;9178343;19;20011;-69
2022/09/23 15:37:16;;;;;;;4.63;3.00;;;19.30;62.70;;;;;;9179179;19;20419;-67
2022/09/23 15:40:23;;;;;;;15.40;3.25;;;19.30;62.70;;;;;;9178098;19;20483;-69
2022/09/23 15:43:27;;;;;;;6.78;3.53;;;19.30;62.60;;;;;;9178070;19;20017;-69
2022/09/23 15:46:32;;;;;;;7.55;3.00;;;19.20;62.50;;;;;;9175593;19;20010;-70
2022/09/23 15:49:38;;;;;;;10.48;3.63;;;19.20;62.50;;;;;;9172166;19;20078;-69
2022/09/23 15:52:43;;;;;;;10.15;4.20;;;19.20;62.50;;;;;;9169448;19;20086;-67
2022/09/23 15:55:50;;;;;;;10.05;3.88;;;19.10;62.50;;;;;;9170583;19;20081;-68
2022/09/23 15:58:54;;;;;;;5.93;2.80;;;19.10;62.40;;;;;;9175518;19;20023;-67
2022/09/23 16:01:59;;;;;;;11.80;4.07;;;19.10;62.50;;;;;;9164985;19;20411;-68
2022/09/23 16:05:06;;;;;;;14.48;3.90;;;19.00;62.50;;;;;;9176384;19;20022;-69
2022/09/23 16:08:11;;;;;;;6.90;3.20;;;19.00;62.60;;;;;;9175845;19;20046;-68
2022/09/23 16:11:19;;;;;;;10.20;3.78;;;18.90;62.50;;;;;;9176722;19;20014;-69
2022/09/23 16:14:23;;;;;;;7.22;3.63;;;18.90;62.50;;;;;;9177800;19;20022;-68
2022/09/23 16:17:27;;;;;;;7.28;3.45;;;18.90;62.50;;;;;;9176344;19;20090;-69
2022/09/23 16:20:31;;;;;;;;;;;18.90;62.60;;;;;;9165212;19;20026;-68
2022/09/23 16:23:39;;;;;;;10.02;2.97;;;18.80;62.60;;;;;;9167533;19;20001;-68
2022/09/23 16:26:46;;;;;;;9.07;3.35;;;18.80;62.70;;;;;;9167399;19;20476;-68
2022/09/23 16:29:49;;;;;;;8.30;3.92;;;18.80;62.70;;;;;;9177058;19;20404;-69
2022/09/23 16:32:53;;;;;;;10.07;3.58;;;18.70;62.70;;;;;;9179553;19;20033;-67
2022/09/23 16:35:59;;;;;;;;;;;18.70;62.70;;;;;;9174738;19;20074;-68
2022/09/23 16:39:06;;;;;;;8.80;3.97;;;18.70;62.80;;;;;;9172289;19;19922;-68